Terminal Aerodrome Forecast
Issued by NWS

Home | Current Version | Previous Version | Text Only | Print | Product List | Glossary On
Versions: 1 2 3 4 5 6 7 8 9 10 11 12 13 14 15 16 17 18
461
FTUS44 KTSA 212325
TAFFYV
TAF
KFYV 212325Z 2200/2224 00000KT P6SM VCSH SCT070 BKN110
      TEMPO 2200/2204 3SM -TSRA BR OVC025CB
     FM220400 16005KT 5SM -SHRA BR OVC025
      TEMPO 2204/2208 3SM -TSRA BR OVC008CB
     FM220800 VRB03KT 3SM -RA BR OVC008
     FM221500 35011KT 5SM -RA BR OVC012=

USA.gov is the U.S. government's official web portal to all federal, state and local government web resources and services.